createdAt,value
2018-04-30T00:01:31.096Z,12.45
2018-04-30T00:03:58.530Z,10.07
2018-04-30T00:06:27.213Z,10.30
2018-04-30T00:08:58.082Z,11.63
2018-04-30T00:11:26.282Z,11.52
2018-04-30T00:13:53.756Z,12.43
2018-04-30T00:16:21.215Z,11.05
2018-04-30T00:18:48.750Z,12.45
2018-04-30T00:21:18.082Z,10.95
2018-04-30T00:23:45.868Z,14.18
2018-04-30T00:26:13.976Z,11.23
2018-04-30T00:28:41.482Z,11.23
2018-04-30T00:31:12.958Z,10.88
2018-04-30T00:33:50.568Z,12.45
2018-04-30T00:36:18.300Z,14.82
2018-04-30T00:38:47.042Z,11.40
2018-04-30T00:41:15.699Z,12.55
2018-04-30T00:43:52.789Z,11.73
2018-04-30T00:46:20.578Z,12.90
2018-04-30T00:48:48.120Z,11.95
2018-04-30T00:51:17.507Z,11.88
2018-04-30T00:53:59.349Z,12.37
2018-04-30T00:56:26.953Z,11.98
2018-04-30T00:58:54.832Z,12.15
2018-04-30T01:01:22.325Z,13.57
2018-04-30T01:03:49.759Z,15.20
2018-04-30T01:06:17.280Z,12.50
2018-04-30T01:08:44.715Z,15.80
2018-04-30T01:11:12.194Z,13.38
2018-04-30T01:13:44.753Z,15.15
2018-04-30T01:16:15.448Z,14.85
2018-04-30T01:18:43.853Z,13.52
2018-04-30T01:21:12.438Z,17.15
2018-04-30T01:23:40.792Z,14.23
2018-04-30T01:26:10.045Z,13.93
2018-04-30T01:28:37.976Z,15.02
2018-04-30T01:31:07.088Z,19.85
2018-04-30T01:33:36.472Z,13.60
2018-04-30T01:36:05.754Z,13.70
2018-04-30T01:38:33.268Z,13.95
2018-04-30T01:41:00.935Z,14.48
2018-04-30T01:43:28.382Z,14.23
2018-04-30T01:45:55.826Z,13.65
2018-04-30T01:48:23.292Z,13.77
2018-04-30T01:50:50.766Z,14.52
2018-04-30T01:53:18.302Z,17.52
2018-04-30T01:55:46.619Z,18.45
2018-04-30T01:58:15.001Z,14.60
2018-04-30T02:00:43.366Z,15.60
2018-04-30T02:03:10.811Z,24.08
2018-04-30T02:05:38.318Z,14.52
2018-04-30T02:08:06.653Z,16.42
2018-04-30T02:10:35.616Z,16.08
2018-04-30T02:13:05.839Z,14.77
2018-04-30T02:15:36.449Z,17.17
2018-04-30T02:18:04.807Z,16.48
2018-04-30T02:20:34.919Z,14.30
2018-04-30T02:23:02.535Z,19.80
2018-04-30T02:25:30.547Z,17.50
2018-04-30T02:27:58.027Z,15.77
2018-04-30T02:30:25.890Z,15.40
2018-04-30T02:32:53.351Z,16.10
2018-04-30T02:35:20.781Z,18.20
2018-04-30T02:37:50.779Z,16.60
2018-04-30T02:40:18.348Z,16.42
2018-04-30T02:42:45.834Z,21.58
2018-04-30T02:45:14.259Z,17.33
2018-04-30T02:47:41.701Z,15.75
2018-04-30T02:50:09.726Z,16.23
2018-04-30T03:01:14.423Z,16.00
2018-04-30T03:06:39.142Z,20.73
2018-04-30T03:09:07.862Z,17.48
2018-04-30T03:11:35.364Z,15.90
2018-04-30T03:14:05.455Z,17.37
2018-04-30T03:16:33.052Z,16.48
2018-04-30T03:19:00.649Z,18.55
2018-04-30T03:21:31.813Z,17.95
2018-04-30T03:24:03.397Z,16.23
2018-04-30T03:26:34.417Z,18.40
2018-04-30T03:29:03.345Z,17.02
2018-04-30T03:31:32.564Z,18.52
2018-04-30T03:34:10.203Z,19.77
2018-04-30T03:36:39.560Z,19.30
2018-04-30T03:39:08.031Z,16.77
2018-04-30T03:41:37.339Z,19.27
2018-04-30T03:44:06.624Z,17.98
2018-04-30T03:46:40.416Z,17.48
2018-04-30T03:49:09.847Z,17.45
2018-04-30T03:51:37.323Z,20.20
2018-04-30T03:54:05.570Z,18.37
2018-04-30T03:56:33.059Z,17.35
2018-04-30T03:59:00.534Z,23.48
2018-04-30T04:01:39.750Z,16.62
2018-04-30T04:04:18.930Z,16.95
2018-04-30T04:06:52.262Z,21.12
2018-04-30T04:09:19.790Z,16.67
2018-04-30T04:11:47.282Z,16.08
2018-04-30T04:14:15.637Z,15.60
2018-04-30T04:16:43.940Z,17.05
2018-04-30T04:19:11.463Z,19.90
2018-04-30T04:21:40.795Z,16.92
2018-04-30T04:24:08.298Z,20.80
2018-04-30T04:26:35.754Z,17.42
2018-04-30T04:29:04.231Z,20.15
2018-04-30T04:31:33.530Z,17.12
2018-04-30T04:34:02.270Z,18.48
2018-04-30T04:36:29.751Z,25.20
2018-04-30T04:38:57.211Z,16.73
2018-04-30T04:41:24.874Z,21.10
2018-04-30T04:43:52.560Z,23.65
2018-04-30T04:46:20.889Z,18.62
2018-04-30T04:48:48.429Z,15.00
2018-04-30T04:51:16.878Z,15.93
2018-04-30T04:53:54.064Z,18.37
2018-04-30T04:56:21.858Z,20.85
2018-04-30T04:58:49.313Z,22.75
2018-04-30T05:01:16.746Z,17.60
2018-04-30T05:03:44.674Z,18.10
2018-04-30T05:06:14.694Z,17.52
2018-04-30T05:08:44.566Z,22.95
2018-04-30T05:11:12.364Z,17.98
2018-04-30T05:13:39.940Z,17.23
2018-04-30T05:16:07.892Z,21.05
2018-04-30T05:18:36.398Z,18.67
2018-04-30T05:21:04.671Z,19.73
2018-04-30T05:23:32.268Z,22.60
2018-04-30T05:25:59.777Z,18.50
2018-04-30T05:28:28.852Z,18.65
2018-04-30T05:30:57.778Z,18.77
2018-04-30T05:33:27.374Z,15.90
2018-04-30T05:35:54.854Z,22.95
2018-04-30T05:38:22.310Z,16.17
2018-04-30T05:40:49.808Z,17.58
2018-04-30T05:43:17.256Z,20.52
2018-04-30T05:45:44.774Z,17.05
2018-04-30T05:48:12.215Z,26.35
2018-04-30T05:50:39.774Z,13.68
2018-04-30T05:53:07.244Z,14.70
2018-04-30T05:55:34.700Z,19.08
2018-04-30T05:58:02.159Z,18.62
2018-04-30T06:00:29.702Z,14.23
2018-04-30T06:02:57.146Z,16.65
2018-04-30T06:05:24.596Z,16.85
2018-04-30T06:07:52.065Z,21.35
2018-04-30T06:10:19.549Z,19.00
2018-04-30T06:18:32.094Z,15.73
2018-04-30T06:20:59.756Z,14.57
2018-04-30T06:23:27.221Z,15.32
2018-04-30T06:25:55.592Z,18.52
2018-04-30T06:28:23.099Z,17.77
2018-04-30T06:30:50.685Z,13.50
2018-04-30T06:33:18.138Z,16.30
2018-04-30T06:35:45.671Z,12.93
2018-04-30T06:38:13.984Z,16.83
2018-04-30T06:40:41.510Z,14.20
2018-04-30T06:43:14.034Z,20.27
2018-04-30T06:45:41.546Z,18.37
2018-04-30T06:48:09.112Z,11.00
2018-04-30T06:50:36.608Z,19.05
2018-04-30T06:53:04.186Z,14.52
2018-04-30T06:55:31.711Z,12.20
2018-04-30T06:57:59.620Z,11.35
2018-04-30T07:00:27.180Z,14.65
2018-04-30T07:02:54.644Z,13.57
2018-04-30T07:05:22.067Z,13.62
2018-04-30T07:07:49.514Z,13.68
2018-04-30T07:10:17.067Z,11.30
2018-04-30T07:12:44.580Z,14.00
2018-04-30T07:15:12.770Z,11.75
2018-04-30T07:17:40.244Z,9.85
2018-04-30T07:20:07.717Z,11.95
2018-04-30T07:22:35.171Z,12.15
2018-04-30T07:25:02.616Z,9.10
2018-04-30T07:27:30.098Z,10.48
2018-04-30T07:29:57.557Z,8.38
2018-04-30T07:32:30.033Z,13.07
2018-04-30T07:34:57.546Z,9.05
2018-04-30T07:37:25.022Z,12.23
2018-04-30T07:39:52.500Z,11.38
2018-04-30T07:42:20.854Z,10.10
2018-04-30T07:44:48.341Z,10.88
2018-04-30T07:47:15.802Z,14.10
2018-04-30T07:49:43.252Z,11.20
2018-04-30T07:52:29.954Z,10.13
2018-04-30T07:54:57.446Z,11.20
2018-04-30T07:57:24.966Z,12.57
2018-04-30T07:59:52.518Z,13.35
2018-04-30T08:02:29.912Z,8.60
2018-04-30T08:04:57.388Z,10.70
2018-04-30T08:07:25.089Z,10.32
2018-04-30T08:09:52.575Z,12.32
2018-04-30T08:12:29.591Z,7.57
2018-04-30T08:14:57.053Z,6.00
2018-04-30T08:17:24.582Z,11.02
2018-04-30T08:19:52.076Z,3.33
2018-04-30T08:22:19.547Z,4.78
2018-04-30T08:24:47.074Z,6.80
2018-04-30T08:27:14.563Z,3.67
2018-04-30T08:29:42.094Z,11.55
2018-04-30T08:32:09.583Z,4.07
2018-04-30T08:34:37.110Z,5.05
2018-04-30T08:37:04.652Z,6.70
2018-04-30T08:39:32.134Z,4.53
2018-04-30T08:41:59.798Z,4.15
2018-04-30T08:44:27.271Z,4.45
2018-04-30T08:46:54.792Z,7.40
2018-04-30T08:49:22.234Z,3.55
2018-04-30T08:51:49.700Z,2.60
2018-04-30T08:54:17.150Z,5.00
2018-04-30T08:56:44.588Z,3.17
2018-04-30T08:59:12.803Z,2.35
2018-04-30T09:01:40.348Z,3.65
2018-04-30T09:04:07.822Z,9.25
2018-04-30T09:06:35.298Z,3.33
2018-04-30T09:09:02.744Z,1.67
2018-04-30T09:11:30.198Z,2.60
2018-04-30T09:13:57.728Z,3.50
2018-04-30T09:16:25.273Z,3.80
2018-04-30T09:18:52.732Z,2.53
2018-04-30T09:21:20.265Z,3.85
2018-04-30T09:24:02.108Z,1.42
2018-04-30T09:26:29.564Z,6.37
2018-04-30T09:28:57.438Z,3.70
2018-04-30T09:31:24.954Z,4.03
2018-04-30T09:36:50.446Z,5.72
2018-04-30T09:39:17.887Z,3.83
2018-04-30T09:41:45.404Z,1.08
2018-04-30T09:44:12.860Z,4.40
2018-04-30T09:46:40.313Z,2.37
2018-04-30T09:49:07.834Z,4.20
2018-04-30T09:51:35.302Z,4.55
2018-04-30T09:54:02.816Z,2.70
2018-04-30T09:56:30.270Z,4.20
2018-04-30T09:58:57.945Z,4.00
2018-04-30T10:01:25.496Z,2.17
2018-04-30T10:03:53.002Z,1.90
2018-04-30T10:06:20.447Z,3.22
2018-04-30T10:08:48.455Z,4.45
2018-04-30T10:11:16.863Z,2.05
2018-04-30T10:13:44.372Z,1.70
2018-04-30T10:16:11.824Z,2.20
2018-04-30T10:18:39.288Z,1.05
2018-04-30T10:21:06.799Z,1.27
2018-04-30T10:23:34.344Z,4.93
2018-04-30T10:26:01.734Z,2.60
2018-04-30T10:28:29.188Z,1.25
2018-04-30T10:30:56.730Z,1.35
2018-04-30T10:33:24.214Z,1.20
2018-04-30T10:35:51.698Z,1.30
2018-04-30T10:38:19.167Z,2.12
2018-04-30T10:40:46.626Z,1.50
2018-04-30T10:43:14.092Z,1.10
2018-04-30T10:45:41.604Z,1.10
2018-04-30T10:48:09.091Z,3.00
2018-04-30T10:50:36.629Z,2.35
2018-04-30T10:53:04.134Z,2.22
2018-04-30T10:55:31.603Z,1.50
2018-04-30T10:57:59.100Z,2.30
2018-04-30T11:00:26.562Z,3.10
2018-04-30T11:02:54.080Z,1.77
2018-04-30T11:05:21.893Z,3.17
2018-04-30T11:07:49.453Z,5.60
2018-04-30T11:10:16.948Z,1.60
2018-04-30T11:12:44.420Z,1.60
2018-04-30T11:15:11.910Z,3.83
2018-04-30T11:17:39.497Z,2.67
2018-04-30T11:20:06.934Z,1.42
2018-04-30T11:22:34.399Z,2.20
2018-04-30T11:25:01.910Z,1.90
2018-04-30T11:27:29.435Z,3.83
2018-04-30T11:29:56.806Z,2.85
2018-04-30T11:32:24.281Z,2.22
2018-04-30T11:34:55.616Z,2.33
2018-04-30T11:37:23.122Z,3.75
2018-04-30T11:39:50.718Z,2.87
2018-04-30T11:42:18.292Z,1.58
2018-04-30T11:44:45.882Z,1.35
2018-04-30T11:47:13.416Z,2.00
2018-04-30T11:49:54.856Z,1.33
2018-04-30T11:52:26.038Z,2.83
2018-04-30T11:54:59.837Z,1.50
2018-04-30T11:57:33.651Z,1.67
2018-04-30T12:00:12.481Z,1.27
2018-04-30T12:02:57.809Z,4.40
2018-04-30T12:08:38.786Z,1.50
2018-04-30T12:11:21.786Z,2.00
2018-04-30T12:14:07.817Z,3.67
2018-04-30T12:19:40.416Z,2.20
2018-04-30T12:25:02.726Z,2.33
2018-04-30T12:27:39.282Z,2.60
2018-04-30T12:30:13.900Z,1.70
2018-04-30T12:32:50.480Z,2.20
2018-04-30T12:35:22.536Z,3.70
2018-04-30T12:37:55.380Z,3.50
2018-04-30T12:40:26.469Z,2.25
2018-04-30T12:43:04.462Z,2.03
2018-04-30T12:48:28.757Z,2.62
2018-04-30T12:51:02.061Z,1.60
2018-04-30T12:53:34.806Z,1.55
2018-04-30T12:56:09.056Z,3.27
2018-04-30T12:58:43.788Z,2.85
2018-04-30T13:01:14.309Z,1.70
2018-04-30T13:04:02.484Z,2.58
2018-04-30T13:13:09.027Z,1.23
2018-04-30T13:15:59.014Z,1.30
2018-04-30T13:21:19.565Z,2.28
2018-04-30T13:23:50.334Z,1.98
2018-04-30T13:26:29.043Z,2.27
2018-04-30T13:31:34.835Z,1.17
2018-04-30T13:34:03.416Z,1.37
2018-04-30T13:36:32.080Z,2.33
2018-04-30T13:38:59.597Z,1.77
2018-04-30T13:41:27.104Z,2.60
2018-04-30T13:43:55.981Z,1.52
2018-04-30T13:46:23.480Z,1.20
2018-04-30T13:48:51.169Z,2.17
2018-04-30T13:51:18.680Z,1.77
2018-04-30T13:53:46.173Z,3.22
2018-04-30T13:56:13.651Z,3.58
2018-04-30T13:58:41.344Z,1.70
2018-04-30T14:01:08.959Z,2.93
2018-04-30T14:03:41.452Z,2.97
2018-04-30T14:06:09.174Z,1.58
2018-04-30T14:08:37.559Z,2.33
2018-04-30T14:11:05.672Z,2.37
2018-04-30T14:13:33.241Z,1.73
2018-04-30T14:16:02.081Z,1.83
2018-04-30T14:18:29.844Z,1.90
2018-04-30T14:20:57.348Z,1.25
2018-04-30T14:23:25.144Z,1.10
2018-04-30T14:25:52.625Z,3.83
2018-04-30T14:28:20.200Z,1.90
2018-04-30T14:30:48.068Z,1.67
2018-04-30T14:33:15.535Z,1.30
2018-04-30T14:35:42.991Z,1.90
2018-04-30T14:38:10.472Z,1.52
2018-04-30T14:40:37.992Z,2.00
2018-04-30T14:43:05.440Z,2.37
2018-04-30T14:45:33.207Z,3.13
2018-04-30T14:48:00.878Z,3.00
2018-04-30T14:50:28.420Z,1.20
2018-04-30T14:52:55.901Z,3.80
2018-04-30T14:55:23.415Z,1.10
2018-04-30T14:57:50.955Z,2.20
2018-04-30T15:00:18.415Z,1.62
2018-04-30T15:02:45.877Z,2.62
2018-04-30T15:05:13.375Z,1.17
2018-04-30T15:07:40.848Z,1.77
2018-04-30T15:10:08.343Z,1.75
2018-04-30T15:12:35.811Z,1.90
2018-04-30T15:15:03.326Z,1.40
2018-04-30T15:17:30.810Z,1.70
2018-04-30T15:19:58.370Z,3.80
2018-04-30T15:22:25.872Z,1.85
2018-04-30T15:24:55.388Z,2.28
2018-04-30T15:27:22.900Z,1.30
2018-04-30T15:29:50.425Z,1.50
2018-04-30T15:32:17.968Z,1.70
2018-04-30T15:34:45.439Z,1.50
2018-04-30T15:37:13.561Z,1.60
2018-04-30T15:39:41.106Z,2.47
2018-04-30T15:42:08.604Z,2.42
2018-04-30T15:44:36.066Z,3.20
2018-04-30T15:47:03.574Z,3.00
2018-04-30T15:49:31.089Z,1.20
2018-04-30T15:51:58.566Z,1.52
2018-04-30T15:54:26.303Z,2.67
2018-04-30T15:56:53.796Z,1.10
2018-04-30T15:59:21.294Z,1.60
2018-04-30T16:01:48.710Z,2.58
2018-04-30T16:04:16.171Z,1.60
2018-04-30T16:06:43.624Z,1.43
2018-04-30T16:09:11.071Z,1.00
2018-04-30T16:11:38.512Z,2.08
2018-04-30T16:14:06.924Z,3.28
2018-04-30T16:16:34.416Z,3.90
2018-04-30T16:19:01.891Z,1.80
2018-04-30T16:21:29.440Z,1.63
2018-04-30T16:23:56.990Z,3.30
2018-04-30T16:26:24.480Z,2.47
2018-04-30T16:28:52.010Z,1.40
2018-04-30T16:31:20.223Z,2.33
2018-04-30T16:33:47.801Z,1.40
2018-04-30T16:36:15.379Z,1.52
2018-04-30T16:38:44.260Z,1.67
2018-04-30T16:41:11.779Z,1.17
2018-04-30T16:43:44.420Z,2.20
2018-04-30T16:46:12.067Z,3.50
2018-04-30T16:48:39.835Z,2.42
2018-04-30T16:51:07.347Z,3.17
2018-04-30T16:53:34.800Z,1.50
2018-04-30T16:56:02.680Z,4.22
2018-04-30T16:58:30.515Z,2.03
2018-04-30T17:00:58.242Z,1.58
2018-04-30T17:03:25.755Z,3.50
2018-04-30T17:05:53.334Z,1.60
2018-04-30T17:08:20.852Z,1.95
2018-04-30T17:10:48.371Z,3.42
2018-04-30T17:13:15.822Z,2.10
2018-04-30T17:15:43.391Z,1.70
2018-04-30T17:18:11.153Z,3.87
2018-04-30T17:20:40.146Z,2.10
2018-04-30T17:23:07.863Z,1.67
2018-04-30T17:25:35.460Z,2.30
2018-04-30T17:28:04.091Z,2.50
2018-04-30T17:30:32.679Z,2.22
2018-04-30T17:33:00.277Z,1.63
2018-04-30T17:35:27.858Z,2.20
2018-04-30T17:37:55.341Z,2.25
2018-04-30T17:40:23.164Z,1.90
2018-04-30T17:42:50.707Z,1.77
2018-04-30T17:45:18.272Z,2.08
2018-04-30T17:47:45.795Z,2.43
2018-04-30T17:50:13.328Z,2.20
2018-04-30T17:52:55.364Z,1.62
2018-04-30T17:55:22.824Z,2.58
2018-04-30T17:57:51.182Z,1.80
2018-04-30T18:00:18.848Z,2.75
2018-04-30T18:02:46.388Z,2.70
2018-04-30T18:05:13.877Z,2.08
2018-04-30T18:07:41.885Z,3.20
2018-04-30T18:10:09.465Z,1.62
2018-04-30T18:12:37.035Z,2.00
2018-04-30T18:15:04.645Z,2.53
2018-04-30T18:17:32.183Z,2.80
2018-04-30T18:19:59.684Z,2.37
2018-04-30T18:22:27.324Z,4.25
2018-04-30T18:24:54.777Z,1.87
2018-04-30T18:27:23.429Z,2.63
2018-04-30T18:29:51.051Z,2.50
2018-04-30T18:32:18.628Z,2.50
2018-04-30T18:34:46.201Z,2.53
2018-04-30T18:37:13.730Z,2.53
2018-04-30T18:39:41.320Z,4.00
2018-04-30T18:42:08.798Z,3.83
2018-04-30T18:44:36.266Z,2.75
2018-04-30T18:47:03.886Z,3.95
2018-04-30T18:49:31.475Z,4.72
2018-04-30T18:51:58.957Z,3.40
2018-04-30T18:54:26.825Z,3.58
2018-04-30T18:56:54.348Z,3.80
2018-04-30T18:59:21.866Z,5.62
2018-04-30T19:01:49.394Z,5.15
2018-04-30T19:04:40.656Z,5.18
2018-04-30T19:07:08.214Z,6.05
2018-04-30T19:09:35.821Z,3.13
2018-04-30T19:12:03.431Z,3.25
2018-04-30T19:14:31.087Z,3.47
2018-04-30T19:16:58.675Z,4.03
2018-04-30T19:19:26.297Z,3.25
2018-04-30T19:21:53.827Z,3.33
2018-04-30T19:24:21.330Z,4.07
2018-04-30T19:26:49.584Z,3.45
2018-04-30T19:29:17.123Z,3.62
2018-04-30T19:31:44.648Z,3.85
2018-04-30T19:34:12.284Z,2.93
2018-04-30T19:36:39.780Z,2.45
2018-04-30T19:39:07.292Z,2.17
2018-04-30T19:41:34.765Z,3.00
2018-04-30T19:44:02.392Z,3.28
2018-04-30T19:46:29.912Z,2.87
2018-04-30T19:48:57.511Z,3.83
2018-04-30T19:51:25.001Z,3.28
2018-04-30T19:53:57.581Z,4.50
2018-04-30T19:56:25.052Z,3.45
2018-04-30T19:58:52.561Z,6.87
2018-04-30T20:01:20.027Z,3.58
2018-04-30T20:03:47.662Z,4.15
2018-04-30T20:06:15.127Z,3.72
2018-04-30T20:08:42.623Z,3.63
2018-04-30T20:11:10.210Z,4.18
2018-04-30T20:13:37.811Z,4.75
2018-04-30T20:16:05.615Z,2.70
2018-04-30T20:18:33.921Z,3.53
2018-04-30T20:21:01.536Z,3.55
2018-04-30T20:23:38.637Z,4.90
2018-04-30T20:26:06.173Z,4.25
2018-04-30T20:28:33.612Z,4.50
2018-04-30T20:31:01.109Z,4.15
2018-04-30T20:33:28.799Z,3.17
2018-04-30T20:35:56.418Z,4.47
2018-04-30T20:38:24.028Z,3.35
2018-04-30T20:40:51.600Z,3.45
2018-04-30T20:43:29.809Z,3.87
2018-04-30T20:45:57.475Z,4.43
2018-04-30T20:48:25.029Z,3.00
2018-04-30T20:50:52.560Z,4.05
2018-04-30T20:53:20.155Z,5.23
2018-04-30T20:55:47.850Z,4.57
2018-04-30T20:58:15.442Z,3.80
2018-04-30T21:00:43.035Z,3.30
2018-04-30T21:03:10.532Z,5.22
2018-04-30T21:05:38.106Z,5.37
2018-04-30T21:08:05.847Z,4.40
2018-04-30T21:10:33.622Z,5.82
2018-04-30T21:13:01.214Z,3.47
2018-04-30T21:15:28.680Z,4.55
2018-04-30T21:17:56.138Z,4.47
2018-04-30T21:20:23.668Z,5.90
2018-04-30T21:22:51.145Z,3.70
2018-04-30T21:25:18.633Z,5.60
2018-04-30T21:27:46.156Z,4.32
2018-04-30T21:30:13.615Z,3.58
2018-04-30T21:32:41.137Z,2.37
2018-04-30T21:35:08.670Z,3.87
2018-04-30T21:37:36.255Z,4.18
2018-04-30T21:40:03.781Z,4.62
2018-04-30T21:42:31.228Z,4.40
2018-04-30T21:44:58.692Z,4.07
2018-04-30T21:47:26.449Z,4.80
2018-04-30T21:49:54.157Z,2.25
2018-04-30T21:52:21.763Z,3.75
2018-04-30T21:54:49.237Z,2.42
2018-04-30T21:57:16.735Z,4.82
2018-04-30T21:59:44.530Z,4.97
2018-04-30T22:02:12.137Z,3.03
2018-04-30T22:04:40.005Z,2.78
2018-04-30T22:07:07.837Z,4.68
2018-04-30T22:09:35.481Z,2.58
2018-04-30T22:12:03.026Z,2.10
2018-04-30T22:14:30.519Z,3.05
2018-04-30T22:16:58.233Z,2.65
2018-04-30T22:19:25.801Z,5.60
2018-04-30T22:21:53.411Z,2.67
2018-04-30T22:24:24.443Z,2.10
2018-04-30T22:26:53.746Z,5.60
2018-04-30T22:29:22.215Z,1.70
2018-04-30T22:31:49.961Z,2.10
2018-04-30T22:34:17.645Z,2.30
2018-04-30T22:36:45.237Z,2.08
2018-04-30T22:39:12.658Z,1.48
2018-04-30T22:41:40.453Z,2.17
2018-04-30T22:44:07.922Z,1.73
2018-04-30T22:46:41.369Z,3.07
2018-04-30T22:49:09.024Z,3.90
2018-04-30T22:51:36.734Z,2.30
2018-04-30T22:54:04.270Z,5.53
2018-04-30T22:56:34.041Z,2.10
2018-04-30T22:59:01.535Z,3.00
2018-04-30T23:01:29.017Z,1.50
2018-04-30T23:03:56.786Z,2.22
2018-04-30T23:06:24.282Z,3.00
2018-04-30T23:08:53.040Z,4.00
2018-04-30T23:11:20.540Z,3.93
2018-04-30T23:13:48.017Z,3.77
2018-04-30T23:16:15.577Z,2.10
2018-04-30T23:18:45.717Z,4.35
2018-04-30T23:21:13.798Z,3.33
2018-04-30T23:26:17.787Z,13.10
2018-04-30T23:28:46.257Z,4.55
2018-04-30T23:31:14.157Z,1.90
2018-04-30T23:33:41.906Z,2.17
2018-04-30T23:36:17.350Z,3.05
2018-04-30T23:38:45.420Z,2.03
2018-04-30T23:41:14.225Z,2.23
2018-04-30T23:43:41.750Z,3.10
2018-04-30T23:46:09.389Z,3.37
2018-04-30T23:48:37.858Z,4.10
2018-04-30T23:51:11.818Z,5.73
2018-04-30T23:53:56.232Z,2.33
2018-04-30T23:56:33.576Z,3.90
2018-04-30T23:59:01.211Z,3.70
